CDT,Max TemperatureF,Mean TemperatureF,Min TemperatureF,Max Dew PointF,MeanDew PointF,Min DewpointF,Max Humidity, Mean Humidity, Min Humidity, Max Sea Level PressureIn, Mean Sea Level PressureIn, Min Sea Level PressureIn, Max VisibilityMiles, Mean VisibilityMiles, Min VisibilityMiles, Max Wind SpeedMPH, Mean Wind SpeedMPH, Max Gust SpeedMPH,PrecipitationIn, CloudCover, Events, WindDirDegrees
2013-3-1,26,18,8,15,10,4,83,65,45,30.33,30.29,30.21,10,10,8,17,12,22,0.00,4,Snow,359
2013-3-2,27,16,5,10,5,1,84,67,43,30.29,30.24,30.19,10,10,10,15,5,20,0.00,1,,346
2013-3-3,30,14,-2,8,3,-6,95,65,35,30.19,30.15,30.10,10,10,10,8,2,,0.00,0,,6
2013-3-4,30,13,-4,14,6,-9,88,67,46,30.21,30.17,30.12,10,10,10,7,2,,0.00,1,,79
2013-3-5,30,23,16,21,16,10,85,72,49,30.16,30.11,30.01,10,10,10,17,8,22,0.00,7,,13
2013-3-6,30,22,14,22,19,9,91,81,69,30.33,30.24,30.10,10,8,2,13,8,,0.00,7,Snow,329
2013-3-7,28,16,5,17,10,2,92,74,51,30.47,30.40,30.28,10,10,6,9,1,,0.00,4,Snow,308
2013-3-8,37,19,1,22,13,-3,88,72,48,30.50,30.41,30.28,10,10,9,12,3,,0.00,0,,163
2013-3-9,34,28,23,33,27,21,96,89,75,30.28,30.06,29.82,9,4,1,13,7,23,0.10,7,Rain-Snow,143
2013-3-10,36,33,30,34,31,26,100,92,75,29.93,29.82,29.73,10,4,0,14,5,22,0.11,8,Fog-Rain-Snow,354
2013-3-11,33,28,23,29,25,17,93,86,74,29.75,29.61,29.52,10,5,1,21,13,29,0.05,8,Snow,349
2013-3-12,26,22,17,19,15,11,86,77,65,29.96,29.76,29.60,10,6,1,17,9,28,0.00,8,Snow,302
2013-3-13,30,22,12,12,9,6,80,60,38,30.26,30.16,29.99,10,10,4,23,13,30,0.00,1,Snow,325
2013-3-14,39,20,0,25,10,-5,84,62,32,30.27,30.13,29.91,10,10,10,10,2,16,0.00,1,,243
2013-3-15,33,24,15,27,17,6,82,67,47,30.01,29.94,29.84,10,9,2,14,8,18,0.00,7,Snow,351
2013-3-16,27,18,10,12,9,5,86,70,44,30.14,30.00,29.90,10,8,2,22,9,30,0.00,8,Snow,331
2013-3-17,24,11,-2,9,2,-7,80,62,37,30.32,30.23,30.12,10,10,4,12,7,,0.00,2,Snow,98
2013-3-18,32,21,10,25,20,8,96,87,61,30.09,29.65,29.41,10,5,0,13,5,22,0.06,7,Fog-Snow,149
2013-3-19,27,22,17,19,11,6,81,66,53,29.88,29.64,29.41,10,8,2,23,15,33,0.00,7,Snow,289
2013-3-20,21,15,9,10,7,1,79,67,57,30.01,29.91,29.81,10,10,6,23,13,29,0.00,6,Snow,303
2013-3-21,28,21,10,14,12,6,84,69,56,30.03,29.98,29.91,10,9,5,16,10,23,0.00,6,Snow,325
2013-3-22,33,18,3,22,15,-1,92,74,61,30.09,30.04,30.01,10,10,10,9,4,,0.00,6,,329
2013-3-23,32,28,23,21,19,18,81,70,59,30.17,30.13,30.07,10,10,10,9,6,,0.00,8,,349
2013-3-24,30,26,19,24,19,15,81,71,63,30.13,30.01,29.88,10,10,10,14,7,21,0.00,7,,15
2013-3-25,34,25,17,23,20,13,86,72,60,30.13,30.00,29.90,10,10,8,16,9,29,0.00,8,,353
2013-3-26,37,32,26,29,26,21,87,78,59,30.23,30.16,30.07,10,6,0,17,10,29,0.03,7,Fog-Snow,344
2013-3-27,43,30,17,22,19,15,92,64,37,30.28,30.25,30.23,10,10,10,18,7,25,0.00,0,,325
2013-3-28,48,32,18,19,16,12,78,54,29,30.32,30.29,30.25,10,10,10,10,3,,0.00,0,,348
2013-3-29,51,32,16,20,16,11,88,54,22,30.32,30.26,30.17,10,10,10,8,2,,0.00,0,,97
2013-3-30,37,30,24,35,30,19,100,88,64,30.16,29.89,29.73,10,4,0,16,6,29,0.47,7,Fog-Rain-Snow,172
2013-3-31,41,32,23,34,25,14,96,75,46,29.86,29.69,29.56,10,8,2,30,11,38,0.00,6,Rain-Snow,302